메인 페이지
METAR-TAF:

METAR-TAF

공항 :

이르쿠츠크 국제공항

이르쿠츠크, 러시아

위도: 52-16N, 경도: 104-19E, 고도: 513m

현재 날씨관측

예보는 36분 전, 04:30시(UTC)에 발표되었습니다.
동남동4kt풍과 남남동풍을 오가는
온도 -7°C
습도 57%
기압 1027 hPa
시정 10km 이상
1500m 미만 상공 구름 및 적란운 없음

METAR: UIII 150430Z 12002MPS 100V160 CAVOK M07/M14 Q1027 R12/820350 NOSIG RMK QFE727/0970

시각: 13:06 (05:06 UTC)

예보

예보는 3 시간 6분 전, 02:00시(UTC)에 발표되었습니다.
예보 대상 시간: 15일 03시부터 16일 03시까지 (UTC)
남남동10kt
시정 10km 이상

TAF: UIII 150200Z 1503/1603 16005MPS 9999 NSC

4,000개 이상의 공항 관측 자료 및 예보 (METAR 및 TAF 보고).

지도상에서 검색 가능한 기상관측소가 노란 점과 빨간 점으로 표시되어 있습니다.

기상관측소 명을 보려면 표시 위로 마우스를 이동하세요.

날씨 관측과 예보를 보려면 클릭하세요.

지도 변경 : 확대하려면 엑스 표시가 있는 녹색 버튼, 축소하려면 빼기 표시가 있는 녹색 버튼, 다음 페이지의 지도를 보려면 녹색 화살표를 클릭하세요.


METAR-TAF: